Time;durP1;ratioP1;P1;durP2;ratioP2;P2;SDS_P1;SDS_P2;PMS_P1;PMS_P2;Temp;Humidity;BMP_temperature;BMP_pressure;BME280_temperature;BME280_humidity;BME280_pressure;Samples;Min_cycle;Max_cycle;Signal;HPM_P1;HPM_P2
2021/12/26 00:01:14;;;;;;;;;;;;;;;18.39;32.64;94618.84;10413422;28;2285;-62
2021/12/26 00:06:22;;;;;;;;;;;;;;;18.38;32.68;94615.44;10411466;28;1820;-63
2021/12/26 00:11:24;;;;;;;;;;;;;;;18.43;32.54;94622.44;10413849;28;1879;-63
2021/12/26 00:16:24;;;;;;;;;;;;;;;18.44;32.60;94619.56;10399126;28;1829;-62
2021/12/26 00:21:25;;;;;;;;;;;;;;;18.41;32.59;94614.09;10432284;22;2220;-47
2021/12/26 00:26:25;;;;;;;;;;;;;;;18.43;32.53;94619.81;10442471;28;1808;-43
2021/12/26 00:31:26;;;;;;;;;;;;;;;18.44;32.43;94616.19;10431203;28;1963;-40
2021/12/26 00:36:26;;;;;;;;;;;;;;;18.44;32.54;94613.56;10439392;28;1847;-42
2021/12/26 00:41:26;;;;;;;;;;;;;;;18.42;32.51;94615.66;10417231;28;1919;-41
2021/12/26 00:46:27;;;;;;;;;;;;;;;18.45;32.46;94620.34;10441313;28;1804;-46
2021/12/26 00:51:28;;;;;;;;;;;;;;;18.40;32.67;94612.53;10433669;28;1905;-41
2021/12/26 00:56:28;;;;;;;;;;;;;;;18.45;32.50;94617.72;10438826;28;1906;-42
2021/12/26 01:01:28;;;;;;;;;;;;;;;18.42;32.61;94618.28;10436200;28;1979;-40
2021/12/26 01:06:29;;;;;;;;;;;;;;;18.43;32.53;94623.28;10442748;28;1831;-39
2021/12/26 01:11:42;;;;;;;;;;;;;;;18.50;32.28;94617.66;10438838;28;1917;-39
2021/12/26 01:16:43;;;;;;;;;;;;;;;18.45;32.37;94620.34;10441846;28;2059;-39
2021/12/26 01:21:44;;;;;;;;;;;;;;;18.45;32.45;94625.59;10440766;28;1966;-43
2021/12/26 01:26:45;;;;;;;;;;;;;;;18.47;32.44;94623.47;10440041;28;1964;-45
2021/12/26 01:31:45;;;;;;;;;;;;;;;18.45;32.41;94631.63;10429937;28;1812;-39
2021/12/26 01:36:47;;;;;;;;;;;;;;;18.44;32.55;94631.94;10441223;28;1898;-42
2021/12/26 01:41:49;;;;;;;;;;;;;;;18.45;32.42;94633.47;10438468;28;1915;-41
2021/12/26 01:46:49;;;;;;;;;;;;;;;18.43;32.49;94643.44;10441106;28;1865;-41
2021/12/26 01:51:51;;;;;;;;;;;;;;;18.42;32.50;94632.16;10438402;28;1887;-38
2021/12/26 01:56:52;;;;;;;;;;;;;;;18.49;32.29;94631.84;10436741;28;1952;-43
2021/12/26 02:01:54;;;;;;;;;;;;;;;18.44;32.44;94624.06;10437064;28;1992;-39
2021/12/26 02:06:58;;;;;;;;;;;;;;;18.45;32.34;94626.38;10440148;28;1865;-40
2021/12/26 02:11:58;;;;;;;;;;;;;;;18.48;32.33;94625.03;10436008;28;1812;-39
2021/12/26 02:16:59;;;;;;;;;;;;;;;18.48;32.37;94622.41;10433525;28;1844;-39
2021/12/26 02:22:12;;;;;;;;;;;;;;;18.46;32.38;94611.44;10434761;28;1972;-43
2021/12/26 02:27:31;;;;;;;;;;;;;;;18.45;32.40;94612.47;10437256;28;1812;-40
2021/12/26 02:32:32;;;;;;;;;;;;;;;18.45;32.43;94615.88;10433937;28;1808;-43
2021/12/26 02:37:32;;;;;;;;;;;;;;;18.46;32.34;94606.97;10439536;28;1962;-40
2021/12/26 02:42:33;;;;;;;;;;;;;;;18.44;32.36;94603.81;10432136;28;2052;-41
2021/12/26 02:47:35;;;;;;;;;;;;;;;18.47;32.26;94597.22;10416192;28;1912;-42
2021/12/26 02:52:35;;;;;;;;;;;;;;;18.47;32.31;94607.72;10434498;28;1954;-40
2021/12/26 02:57:36;;;;;;;;;;;;;;;18.47;32.38;94605.09;10433610;28;1993;-39
2021/12/26 03:02:43;;;;;;;;;;;;;;;18.46;32.31;94608.81;10429387;28;2078;-41
2021/12/26 03:07:44;;;;;;;;;;;;;;;18.46;32.17;94616.69;10445986;28;2040;-41
2021/12/26 03:12:45;;;;;;;;;;;;;;;18.52;32.21;94615.53;10443822;28;1902;-40
2021/12/26 03:17:46;;;;;;;;;;;;;;;18.46;32.28;94619.31;10440989;28;2072;-41
2021/12/26 03:22:49;;;;;;;;;;;;;;;18.42;32.39;94616.41;10443911;28;1976;-40
2021/12/26 03:27:49;;;;;;;;;;;;;;;18.45;32.30;94617.72;10424711;28;1955;-42
2021/12/26 03:32:50;;;;;;;;;;;;;;;18.47;32.19;94623.47;10438003;28;2021;-41
2021/12/26 03:37:50;;;;;;;;;;;;;;;18.42;32.37;94626.16;10439507;28;1995;-42
2021/12/26 03:42:53;;;;;;;;;;;;;;;18.45;32.34;94630.84;10440382;28;1983;-40
2021/12/26 03:47:53;;;;;;;;;;;;;;;18.48;32.24;94630.28;10436617;28;1876;-42
2021/12/26 03:52:57;;;;;;;;;;;;;;;18.49;32.15;94629.22;10443060;28;1977;-41
2021/12/26 03:57:57;;;;;;;;;;;;;;;18.48;32.25;94628.44;10440843;28;1954;-42
2021/12/26 04:02:57;;;;;;;;;;;;;;;18.47;32.15;94624.25;10440436;28;2193;-44
2021/12/26 04:07:58;;;;;;;;;;;;;;;18.47;32.25;94620.84;10439779;28;1966;-42
2021/12/26 04:12:58;;;;;;;;;;;;;;;18.46;32.19;94624.53;10441963;28;2039;-41
2021/12/26 04:17:59;;;;;;;;;;;;;;;18.50;32.17;94622.91;10437376;28;1993;-44
2021/12/26 04:23:00;;;;;;;;;;;;;;;18.51;32.10;94625.22;10404916;28;1150253;-41
2021/12/26 04:28:00;;;;;;;;;;;;;;;18.48;32.17;94631.06;10443201;28;2039;-43
2021/12/26 04:33:01;;;;;;;;;;;;;;;18.46;32.20;94632.41;10442538;28;2035;-42
2021/12/26 04:38:01;;;;;;;;;;;;;;;18.47;32.23;94645.25;10440321;28;2015;-42
2021/12/26 04:43:02;;;;;;;;;;;;;;;18.46;32.13;94643.69;10439255;28;1982;-40
2021/12/26 04:48:03;;;;;;;;;;;;;;;18.48;32.21;94635.53;10437149;28;1952;-40
2021/12/26 04:53:03;;;;;;;;;;;;;;;18.46;32.14;94635.03;10441094;28;2011;-40
2021/12/26 04:58:04;;;;;;;;;;;;;;;18.48;32.05;94640.78;10442642;28;1982;-39
2021/12/26 05:03:06;;;;;;;;;;;;;;;18.46;32.23;94642.91;10439994;28;1939;-42
2021/12/26 05:08:07;;;;;;;;;;;;;;;18.46;32.25;94642.91;10441734;28;1958;-43
2021/12/26 05:13:07;;;;;;;;;;;;;;;18.48;32.24;94646.03;10436957;28;2111;-41
2021/12/26 05:18:08;;;;;;;;;;;;;;;18.48;32.14;94646.03;10439444;28;1934;-39
2021/12/26 05:23:08;;;;;;;;;;;;;;;18.45;32.19;94636.88;10440586;28;1990;-41
2021/12/26 05:28:09;;;;;;;;;;;;;;;18.50;31.99;94638.66;10438643;28;1861;-43
2021/12/26 05:33:09;;;;;;;;;;;;;;;18.46;32.20;94643.69;10438281;28;1955;-45
2021/12/26 05:38:09;;;;;;;;;;;;;;;18.45;32.21;94630.84;10439128;28;1981;-39
2021/12/26 05:43:10;;;;;;;;;;;;;;;18.47;32.10;94645.25;10439795;28;1975;-39
2021/12/26 05:48:10;;;;;;;;;;;;;;;18.50;32.08;94644.69;10435722;28;1931;-42
2021/12/26 05:53:11;;;;;;;;;;;;;;;18.48;32.14;94646.81;10441260;28;2023;-46
2021/12/26 05:58:11;;;;;;;;;;;;;;;18.47;32.04;94657.56;10438550;28;1964;-44
2021/12/26 06:03:11;;;;;;;;;;;;;;;18.49;32.08;94643.13;10439281;28;2011;-43
2021/12/26 06:08:12;;;;;;;;;;;;;;;18.44;32.16;94645.81;10441466;28;1896;-39
2021/12/26 06:13:12;;;;;;;;;;;;;;;18.47;32.08;94647.09;10440761;28;2142;-45
2021/12/26 06:18:13;;;;;;;;;;;;;;;18.52;32.06;94649.63;10440699;28;1920;-40
2021/12/26 06:23:13;;;;;;;;;;;;;;;18.49;32.10;94650.19;10459594;23;2039;-62
2021/12/26 06:28:14;;;;;;;;;;;;;;;18.48;32.11;94653.91;10438197;28;1944;-63
2021/12/26 06:33:14;;;;;;;;;;;;;;;18.49;32.09;94658.06;10437888;28;1909;-63
2021/12/26 06:38:14;;;;;;;;;;;;;;;18.53;31.98;94656.44;10432028;28;2127;-63
2021/12/26 06:43:15;;;;;;;;;;;;;;;18.53;31.99;94664.31;10431879;28;2007;-63
2021/12/26 06:48:15;;;;;;;;;;;;;;;18.48;32.10;94667.03;10427807;28;1917;-62
2021/12/26 06:53:16;;;;;;;;;;;;;;;18.49;32.00;94660.69;10437414;28;1948;-63
2021/12/26 06:58:16;;;;;;;;;;;;;;;18.49;32.01;94673.81;10435578;28;1928;-63
2021/12/26 07:03:17;;;;;;;;;;;;;;;18.50;32.01;94675.38;10432846;28;1927;-62
2021/12/26 07:08:17;;;;;;;;;;;;;;;18.54;32.02;94676.38;10433567;28;1985;-62
2021/12/26 07:13:17;;;;;;;;;;;;;;;18.50;32.01;94685.88;10435824;28;1967;-63
2021/12/26 07:18:18;;;;;;;;;;;;;;;18.54;31.86;94685.03;10433090;28;2092;-62
2021/12/26 07:23:18;;;;;;;;;;;;;;;18.54;31.84;94692.91;10433748;28;1906;-61
2021/12/26 07:28:19;;;;;;;;;;;;;;;18.51;31.84;94698.72;10435711;28;1804;-62
2021/12/26 07:33:19;;;;;;;;;;;;;;;18.52;31.99;94707.38;10433750;28;2181;-60
2021/12/26 07:38:20;;;;;;;;;;;;;;;18.51;31.95;94703.97;10440521;28;1783;-63
2021/12/26 07:43:20;;;;;;;;;;;;;;;18.49;31.99;94705.31;10436297;28;1984;-62
2021/12/26 07:48:21;;;;;;;;;;;;;;;18.52;31.94;94716.03;10435018;28;1762;-61
2021/12/26 07:53:21;;;;;;;;;;;;;;;18.49;31.88;94710.56;10447316;28;1906;-63
2021/12/26 07:58:21;;;;;;;;;;;;;;;18.53;31.83;94717.56;10440185;28;1851;-62
2021/12/26 08:03:22;;;;;;;;;;;;;;;18.52;31.96;94717.88;10439112;28;1976;-62
2021/12/26 08:08:23;;;;;;;;;;;;;;;18.49;31.92;94718.44;10436331;28;1738;-63
2021/12/26 08:13:23;;;;;;;;;;;;;;;18.48;32.00;94722.13;10442162;28;1830;-62
2021/12/26 08:18:24;;;;;;;;;;;;;;;18.51;31.93;94724.16;10433972;28;2192;-61
2021/12/26 08:23:24;;;;;;;;;;;;;;;18.52;31.91;94723.13;10440949;28;2196;-62
2021/12/26 08:28:24;;;;;;;;;;;;;;;18.48;32.07;94719.50;10438213;28;2089;-63
2021/12/26 08:33:25;;;;;;;;;;;;;;;18.51;31.93;94735.47;10454971;28;2151;-63
2021/12/26 08:38:25;;;;;;;;;;;;;;;18.51;31.87;94724.16;10440271;28;1832;-63
2021/12/26 08:43:26;;;;;;;;;;;;;;;18.53;31.91;94732.53;10437423;28;1906;-63
2021/12/26 08:48:26;;;;;;;;;;;;;;;18.48;31.98;94728.16;10438617;28;1844;-62
2021/12/26 08:53:26;;;;;;;;;;;;;;;18.49;31.93;94732.34;10443310;28;1861;-62
2021/12/26 08:58:27;;;;;;;;;;;;;;;18.50;31.80;94738.38;10438892;28;1836;-62
2021/12/26 09:03:27;;;;;;;;;;;;;;;18.54;31.77;94745.41;10440824;28;1902;-62
2021/12/26 09:08:27;;;;;;;;;;;;;;;18.48;32.00;94741.28;10439793;28;2165;-62
2021/12/26 09:13:28;;;;;;;;;;;;;;;18.50;31.88;94743.63;10443967;28;1824;-62
2021/12/26 09:18:28;;;;;;;;;;;;;;;18.50;31.81;94754.13;10439291;28;1817;-62
2021/12/26 09:23:29;;;;;;;;;;;;;;;18.54;31.82;94748.03;10440675;28;1910;-62
2021/12/26 09:28:30;;;;;;;;;;;;;;;18.53;31.93;94748.28;10424450;28;1822;-62
2021/12/26 09:33:31;;;;;;;;;;;;;;;18.53;31.99;94748.28;10440173;28;1790;-62
2021/12/26 09:38:31;;;;;;;;;;;;;;;18.51;31.94;94745.94;10436997;28;1860;-62
2021/12/26 09:43:32;;;;;;;;;;;;;;;18.54;31.85;94745.41;10437586;28;2105;-62
2021/12/26 09:48:32;;;;;;;;;;;;;;;18.49;32.02;94748.06;10437744;28;2253;-63
2021/12/26 09:53:39;;;;;;;;;;;;;;;18.51;31.85;94745.94;10442288;28;2100;-63
2021/12/26 09:58:56;;;;;;;;;;;;;;;18.48;31.93;94736.03;10440529;28;1844;-62
2021/12/26 10:03:56;;;;;;;;;;;;;;;18.51;31.81;94730.22;10440140;28;1914;-62
2021/12/26 10:08:57;;;;;;;;;;;;;;;18.50;31.97;94727.88;10437595;28;1873;-62
2021/12/26 10:14:01;;;;;;;;;;;;;;;18.48;32.00;94730.78;10439569;28;1781;-63
2021/12/26 10:19:01;;;;;;;;;;;;;;;18.49;31.88;94724.47;10438970;28;1785;-61
2021/12/26 10:24:06;;;;;;;;;;;;;;;18.49;31.99;94726.31;10438931;28;1910;-61
2021/12/26 10:29:12;;;;;;;;;;;;;;;18.51;31.93;94718.91;10433363;28;1864;-61
2021/12/26 10:34:21;;;;;;;;;;;;;;;18.47;32.02;94723.97;10432403;28;1813;-63
2021/12/26 10:39:25;;;;;;;;;;;;;;;18.50;31.88;94730.50;10430199;28;1913;-63
2021/12/26 10:44:31;;;;;;;;;;;;;;;18.54;31.86;94718.38;10434679;28;1924;-61
2021/12/26 10:49:32;;;;;;;;;;;;;;;18.53;31.93;94722.03;10430789;28;1804;-61
2021/12/26 10:54:33;;;;;;;;;;;;;;;18.49;32.04;94721.06;10440841;28;1816;-62
2021/12/26 10:59:33;;;;;;;;;;;;;;;18.53;31.88;94722.03;10434966;28;1807;-63
2021/12/26 11:04:35;;;;;;;;;;;;;;;18.52;31.98;94715.25;10437519;28;1914;-62
2021/12/26 11:09:35;;;;;;;;;;;;;;;18.48;32.03;94711.63;10436439;28;1788;-61
2021/12/26 11:14:54;;;;;;;;;;;;;;;18.50;32.01;94722.63;10439023;28;1873;-62
2021/12/26 11:19:55;;;;;;;;;;;;;;;18.50;32.02;94712.13;10441854;28;1862;-62
2021/12/26 11:24:57;;;;;;;;;;;;;;;18.53;32.02;94711.53;10436056;28;1983;-62
2021/12/26 11:29:58;;;;;;;;;;;;;;;18.49;32.03;94707.94;10443026;28;1845;-61
2021/12/26 11:34:58;;;;;;;;;;;;;;;18.48;32.12;94709.78;10446856;28;1805;-62
2021/12/26 11:39:59;;;;;;;;;;;;;;;18.49;32.00;94705.31;10429033;28;1893;-62
2021/12/26 11:45:06;;;;;;;;;;;;;;;18.53;31.99;94706.28;10429063;28;1977;-62
2021/12/26 11:50:28;;;;;;;;;;;;;;;18.51;31.96;94705.81;10441213;28;2425;-62
2021/12/26 11:55:47;;;;;;;;;;;;;;;18.53;31.94;94701.03;10441814;28;1823;-62
2021/12/26 12:00:48;;;;;;;;;;;;;;;18.48;32.12;94701.13;10444283;28;1879;-60
2021/12/26 12:05:49;;;;;;;;;;;;;;;18.52;32.02;94699.50;10445119;28;1985;-60
2021/12/26 12:10:52;;;;;;;;;;;;;;;18.50;32.02;94699.00;10444816;28;1808;-63
2021/12/26 12:15:53;;;;;;;;;;;;;;;18.50;32.09;94699.00;10440436;28;1830;-60
2021/12/26 12:21:06;;;;;;;;;;;;;;;18.50;31.98;94697.16;10445241;28;1941;-63
2021/12/26 12:26:06;;;;;;;;;;;;;;;18.48;32.03;94693.25;10460977;22;1851;-51
2021/12/26 12:31:07;;;;;;;;;;;;;;;18.51;31.93;94693.47;10438749;28;1962;-49
2021/12/26 12:36:27;;;;;;;;;;;;;;;18.50;31.91;94694.53;10440999;28;1834;-50
2021/12/26 12:41:30;;;;;;;;;;;;;;;18.49;32.21;94694.81;10420102;28;1977;-50
2021/12/26 12:46:31;;;;;;;;;;;;;;;18.50;32.02;94693.75;10436227;28;1905;-50
2021/12/26 12:51:35;;;;;;;;;;;;;;;18.49;32.04;94700.84;10438273;28;1889;-53
2021/12/26 12:56:38;;;;;;;;;;;;;;;18.52;32.01;94694.25;10435737;28;1882;-53
2021/12/26 13:01:42;;;;;;;;;;;;;;;18.48;32.04;94690.66;10439604;28;1976;-50
2021/12/26 13:07:02;;;;;;;;;;;;;;;18.48;32.05;94694.06;10442007;28;1854;-44
2021/12/26 13:12:04;;;;;;;;;;;;;;;18.52;31.98;94695.03;10437742;28;1986;-51
2021/12/26 13:17:05;;;;;;;;;;;;;;;18.48;32.01;94688.81;10437007;28;1857;-49
2021/12/26 13:22:06;;;;;;;;;;;;;;;18.50;32.16;94691.13;10440482;28;1992;-50
2021/12/26 13:27:07;;;;;;;;;;;;;;;18.49;32.04;94689.56;10441841;28;1843;-45
2021/12/26 13:32:07;;;;;;;;;;;;;;;18.49;32.12;94689.56;10437998;28;1870;-47
2021/12/26 13:37:07;;;;;;;;;;;;;;;18.52;32.00;94687.16;10441678;28;1871;-46
2021/12/26 13:42:08;;;;;;;;;;;;;;;18.50;32.22;94683.25;10438305;28;1906;-47
2021/12/26 13:47:09;;;;;;;;;;;;;;;18.51;32.02;94692.69;10433895;28;1879;-48
2021/12/26 13:52:09;;;;;;;;;;;;;;;18.51;32.14;94693.47;10441145;28;1902;-48
2021/12/26 13:57:10;;;;;;;;;;;;;;;18.49;32.18;94694.81;10437964;28;1808;-51
2021/12/26 14:02:14;;;;;;;;;;;;;;;18.53;32.02;94699.22;10437122;28;1913;-52
2021/12/26 14:07:18;;;;;;;;;;;;;;;18.54;31.84;94698.16;10422283;28;1915;-48
2021/12/26 14:12:28;;;;;;;;;;;;;;;18.53;32.00;94695.78;10440261;28;1893;-50
2021/12/26 14:17:28;;;;;;;;;;;;;;;18.49;32.02;94694.81;10436632;28;1944;-49
2021/12/26 14:22:28;;;;;;;;;;;;;;;18.48;32.05;94698.50;10438274;28;2168;-52
2021/12/26 14:27:29;;;;;;;;;;;;;;;18.53;31.99;94698.41;10436602;28;1898;-46
2021/12/26 14:32:29;;;;;;;;;;;;;;;18.48;32.09;94698.50;10436321;28;2198;-46
2021/12/26 14:37:29;;;;;;;;;;;;;;;18.49;32.02;94700.84;10442798;28;1861;-46
2021/12/26 14:42:30;;;;;;;;;;;;;;;18.48;32.10;94704.53;10431076;28;1906;-47
2021/12/26 14:47:32;;;;;;;;;;;;;;;18.50;32.06;94706.88;10433375;28;2242;-46
2021/12/26 14:52:34;;;;;;;;;;;;;;;18.48;32.15;94714.25;10436326;28;1962;-48
2021/12/26 14:57:35;;;;;;;;;;;;;;;18.51;31.98;94714.47;10432307;28;1834;-47
2021/12/26 15:02:36;;;;;;;;;;;;;;;18.47;32.03;94712.69;10435168;28;1963;-49
2021/12/26 15:07:41;;;;;;;;;;;;;;;18.51;32.00;94719.72;10436443;28;1879;-49
2021/12/26 15:12:51;;;;;;;;;;;;;;;18.49;32.02;94716.59;10437716;28;1824;-48
2021/12/26 15:17:52;;;;;;;;;;;;;;;18.49;32.08;94719.22;10433603;28;1861;-51
2021/12/26 15:23:00;;;;;;;;;;;;;;;18.49;32.03;94715.81;10437223;28;1977;-48
2021/12/26 15:28:01;;;;;;;;;;;;;;;18.49;32.08;94713.97;10438757;28;1814;-50
2021/12/26 15:33:02;;;;;;;;;;;;;;;18.48;32.04;94715.03;10435416;28;1820;-49
2021/12/26 15:38:03;;;;;;;;;;;;;;;18.49;32.10;94718.44;10432447;28;1834;-47
2021/12/26 15:43:05;;;;;;;;;;;;;;;18.54;32.00;94721.00;10437857;28;2073;-47
2021/12/26 15:48:05;;;;;;;;;;;;;;;18.55;32.00;94722.53;10431827;28;1992;-47
2021/12/26 15:53:05;;;;;;;;;;;;;;;18.53;32.08;94717.56;10438580;28;1838;-49
2021/12/26 15:58:06;;;;;;;;;;;;;;;18.54;32.08;94718.38;10433374;28;1969;-51
2021/12/26 16:03:06;;;;;;;;;;;;;;;18.51;32.06;94724.97;10435735;28;1906;-46
2021/12/26 16:08:07;;;;;;;;;;;;;;;18.48;32.11;94717.66;10434224;28;1794;-46
2021/12/26 16:13:07;;;;;;;;;;;;;;;18.48;32.22;94712.41;10434339;28;1854;-48
2021/12/26 16:18:07;;;;;;;;;;;;;;;18.50;32.09;94714.75;10435646;28;1905;-46
2021/12/26 16:23:08;;;;;;;;;;;;;;;18.46;32.19;94717.19;10439160;28;1965;-49
2021/12/26 16:28:08;;;;;;;;;;;;;;;18.55;31.99;94712.03;10438992;28;1943;-48
2021/12/26 16:33:09;;;;;;;;;;;;;;;18.52;32.05;94721.28;10439773;28;1916;-46
2021/12/26 16:38:10;;;;;;;;;;;;;;;18.55;32.15;94719.91;10439864;28;2214;-47
2021/12/26 16:43:11;;;;;;;;;;;;;;;18.51;32.13;94724.97;10437679;28;1973;-46
2021/12/26 16:48:12;;;;;;;;;;;;;;;18.54;32.00;94713.13;10438003;28;1859;-46
2021/12/26 16:53:12;;;;;;;;;;;;;;;18.55;32.12;94722.53;10439042;28;1847;-47
2021/12/26 16:58:13;;;;;;;;;;;;;;;18.52;32.05;94726.53;10425385;28;1871;-46
2021/12/26 17:03:14;;;;;;;;;;;;;;;18.52;32.18;94720.50;10424441;28;1902;-46
2021/12/26 17:08:14;;;;;;;;;;;;;;;18.51;32.07;94722.34;10438417;28;1866;-48
2021/12/26 17:13:15;;;;;;;;;;;;;;;18.53;32.10;94719.41;10438932;28;2095;-49
2021/12/26 17:18:15;;;;;;;;;;;;;;;18.54;32.02;94713.91;10439020;28;1978;-48
2021/12/26 17:23:15;;;;;;;;;;;;;;;18.53;32.06;94727.28;10439198;28;1969;-49
2021/12/26 17:28:16;;;;;;;;;;;;;;;18.51;32.16;94724.16;10438375;28;1913;-47
2021/12/26 17:33:16;;;;;;;;;;;;;;;18.49;32.14;94715.81;10439951;28;1776;-49
2021/12/26 17:38:17;;;;;;;;;;;;;;;18.49;32.28;94713.19;10436406;28;1919;-48
2021/12/26 17:43:17;;;;;;;;;;;;;;;18.56;32.08;94719.66;10439620;28;1938;-51
2021/12/26 17:48:18;;;;;;;;;;;;;;;18.51;32.20;94724.97;10435560;28;1782;-48
2021/12/26 17:53:20;;;;;;;;;;;;;;;18.49;32.19;94726.31;10440507;28;1822;-46
2021/12/26 17:58:20;;;;;;;;;;;;;;;18.53;32.12;94722.81;10437986;28;1773;-50
2021/12/26 18:03:21;;;;;;;;;;;;;;;18.49;32.14;94721.84;10439098;28;1983;-46
2021/12/26 18:08:21;;;;;;;;;;;;;;;18.52;32.13;94731.00;10437183;28;1811;-50
2021/12/26 18:13:22;;;;;;;;;;;;;;;18.54;32.10;94718.38;10442744;28;1769;-49
2021/12/26 18:18:22;;;;;;;;;;;;;;;18.53;32.16;94722.03;10439437;28;1845;-51
2021/12/26 18:23:23;;;;;;;;;;;;;;;18.51;32.16;94718.91;10440122;28;1914;-47
2021/12/26 18:28:23;;;;;;;;;;;;;;;18.56;32.01;94701.28;10444957;22;3635;-59
2021/12/26 18:33:29;;;;;;;;;;;;;;;18.51;32.22;94692.69;10435956;28;1824;-61
2021/12/26 18:38:30;;;;;;;;;;;;;;;18.53;32.09;94682.69;10441989;28;1852;-60
2021/12/26 18:43:30;;;;;;;;;;;;;;;18.49;32.32;94684.31;10439668;28;1910;-61
2021/12/26 18:48:32;;;;;;;;;;;;;;;18.53;32.17;94688.72;10433850;28;1862;-60
2021/12/26 18:53:32;;;;;;;;;;;;;;;18.49;32.16;94690.34;10440024;28;1952;-60
2021/12/26 18:58:33;;;;;;;;;;;;;;;18.48;32.31;94691.44;10438492;28;1956;-61
2021/12/26 19:03:33;;;;;;;;;;;;;;;18.51;32.24;94685.59;10436363;28;1917;-61
2021/12/26 19:08:34;;;;;;;;;;;;;;;18.52;32.21;94694.25;10438279;28;1816;-62
2021/12/26 19:13:35;;;;;;;;;;;;;;;18.53;32.15;94698.41;10435933;28;1790;-61
2021/12/26 19:18:37;;;;;;;;;;;;;;;18.51;32.25;94696.09;10451911;28;2164;-62
2021/12/26 19:23:37;;;;;;;;;;;;;;;18.49;32.43;94700.06;10440460;28;1909;-61
2021/12/26 19:28:42;;;;;;;;;;;;;;;18.51;32.21;94705.81;10437688;28;1798;-61
2021/12/26 19:33:46;;;;;;;;;;;;;;;18.51;32.25;94703.19;10436586;28;1835;-61
2021/12/26 19:38:46;;;;;;;;;;;;;;;18.48;32.27;94703.75;10438749;28;1874;-61
2021/12/26 19:43:52;;;;;;;;;;;;;;;18.54;32.19;94702.63;10439422;28;1905;-62
2021/12/26 19:48:55;;;;;;;;;;;;;;;18.51;32.35;94705.81;10438099;28;1897;-62
2021/12/26 19:53:56;;;;;;;;;;;;;;;18.49;32.21;94706.09;10447407;28;1824;-62
2021/12/26 19:58:57;;;;;;;;;;;;;;;18.50;32.29;94706.88;10443078;28;1733;-62
2021/12/26 20:03:57;;;;;;;;;;;;;;;18.49;32.31;94694.81;10460529;28;1965;-61
2021/12/26 20:08:58;;;;;;;;;;;;;;;18.52;32.27;94695.03;10444179;28;1875;-62
2021/12/26 20:13:58;;;;;;;;;;;;;;;18.51;32.22;94700.56;10444210;28;2036;-61
2021/12/26 20:18:58;;;;;;;;;;;;;;;18.54;32.22;94697.38;10443831;28;1847;-61
2021/12/26 20:23:59;;;;;;;;;;;;;;;18.52;32.23;94694.25;10443263;28;1954;-61
2021/12/26 20:29:00;;;;;;;;;;;;;;;18.54;32.11;94692.91;10440872;28;1912;-61
2021/12/26 20:34:01;;;;;;;;;;;;;;;18.46;32.34;94684.91;10444306;28;1934;-61
2021/12/26 20:39:03;;;;;;;;;;;;;;;18.52;32.13;94689.00;10444899;28;2166;-61
2021/12/26 20:44:04;;;;;;;;;;;;;;;18.53;32.22;94690.56;10443499;28;1965;-61
2021/12/26 20:49:06;;;;;;;;;;;;;;;18.49;32.25;94700.06;10440028;28;1784;-62
2021/12/26 20:54:06;;;;;;;;;;;;;;;18.55;32.06;94681.34;10445273;28;1901;-62
2021/12/26 20:59:07;;;;;;;;;;;;;;;18.50;32.24;94686.69;10439398;28;1904;-61
2021/12/26 21:04:07;;;;;;;;;;;;;;;18.53;32.21;94701.03;10458781;28;1964;-61
2021/12/26 21:09:08;;;;;;;;;;;;;;;18.49;32.34;94698.22;10440555;28;1824;-61
2021/12/26 21:14:08;;;;;;;;;;;;;;;18.52;32.23;94689.00;10442786;28;1944;-60
2021/12/26 21:19:09;;;;;;;;;;;;;;;18.54;32.17;94695.53;10442375;28;1857;-62
2021/12/26 21:24:09;;;;;;;;;;;;;;;18.52;32.14;94696.88;10442347;28;1971;-61
2021/12/26 21:29:10;;;;;;;;;;;;;;;18.54;32.05;94682.41;10454528;28;1865;-62
2021/12/26 21:34:10;;;;;;;;;;;;;;;18.52;32.24;94679.28;10439437;28;1844;-61
2021/12/26 21:39:10;;;;;;;;;;;;;;;18.51;32.18;94682.97;10442507;28;1896;-61
2021/12/26 21:44:11;;;;;;;;;;;;;;;18.53;32.20;94682.69;10442166;28;1882;-60
2021/12/26 21:49:12;;;;;;;;;;;;;;;18.53;32.14;94680.06;10435847;28;2066;-61
2021/12/26 21:54:12;;;;;;;;;;;;;;;18.52;32.20;94683.75;10438339;28;2423;-62
2021/12/26 21:59:17;;;;;;;;;;;;;;;18.53;32.15;94685.31;10437367;28;1816;-62
2021/12/26 22:04:18;;;;;;;;;;;;;;;18.50;32.22;94678.81;10439630;28;1919;-62
2021/12/26 22:09:18;;;;;;;;;;;;;;;18.51;32.20;94679.56;10453577;28;1835;-60
2021/12/26 22:14:19;;;;;;;;;;;;;;;18.53;32.12;94672.19;10440376;28;1719;-62
2021/12/26 22:19:19;;;;;;;;;;;;;;;18.54;32.16;94674.53;10439874;28;1764;-62
2021/12/26 22:24:20;;;;;;;;;;;;;;;18.51;32.15;94655.94;10441284;28;1983;-62
2021/12/26 22:29:21;;;;;;;;;;;;;;;18.54;32.16;94658.00;10434561;28;1875;-62
2021/12/26 22:34:21;;;;;;;;;;;;;;;18.52;32.17;94660.13;10441211;28;1827;-62
2021/12/26 22:39:21;;;;;;;;;;;;;;;18.48;32.26;94648.66;10438972;28;1839;-62
2021/12/26 22:44:22;;;;;;;;;;;;;;;18.49;32.19;94644.94;10437697;28;1914;-62
2021/12/26 22:49:22;;;;;;;;;;;;;;;18.51;32.29;94643.59;10433213;28;1865;-62
2021/12/26 22:54:22;;;;;;;;;;;;;;;18.52;32.22;94642.56;10440205;28;2340;-62
2021/12/26 22:59:23;;;;;;;;;;;;;;;18.52;32.28;94642.56;10430444;28;2210;-61
2021/12/26 23:04:23;;;;;;;;;;;;;;;18.50;32.09;94630.78;10437431;28;2223;-62
2021/12/26 23:09:24;;;;;;;;;;;;;;;18.52;32.27;94626.03;10436717;28;2168;-62
2021/12/26 23:14:24;;;;;;;;;;;;;;;18.46;32.38;94627.97;10439751;28;2233;-61
2021/12/26 23:19:25;;;;;;;;;;;;;;;18.44;32.29;94611.69;10434924;28;2222;-62
2021/12/26 23:24:25;;;;;;;;;;;;;;;18.48;32.25;94625.81;10449146;28;2171;-62
2021/12/26 23:29:26;;;;;;;;;;;;;;;18.45;32.25;94625.59;10444066;28;2150;-61
2021/12/26 23:34:26;;;;;;;;;;;;;;;18.45;32.37;94615.09;10446239;28;2031;-61
2021/12/26 23:39:27;;;;;;;;;;;;;;;18.47;32.23;94623.47;10446362;28;1866;-62
2021/12/26 23:44:30;;;;;;;;;;;;;;;18.47;32.29;94618.22;10446090;28;2155;-61
2021/12/26 23:49:30;;;;;;;;;;;;;;;18.51;32.07;94611.34;10446551;28;1952;-62
2021/12/26 23:54:31;;;;;;;;;;;;;;;18.48;32.23;94622.41;10445480;28;1984;-62
2021/12/26 23:59:31;;;;;;;;;;;;;;;18.44;32.36;94611.69;10440990;28;1886;-61
